createdAt,value
2022-07-29T00:02:25.202Z,81.41
2022-07-29T00:04:51.737Z,81.79
2022-07-29T00:07:18.300Z,82.51
2022-07-29T00:09:51.034Z,82.44
2022-07-29T00:12:25.559Z,82.54
2022-07-29T00:14:53.935Z,82.24
2022-07-29T00:17:20.453Z,81.87
2022-07-29T00:19:47.009Z,81.62
2022-07-29T00:22:13.559Z,81.83
2022-07-29T00:24:40.108Z,81.51
2022-07-29T00:27:07.156Z,81.64
2022-07-29T00:29:34.849Z,81.62
2022-07-29T00:32:02.446Z,81.63
2022-07-29T00:34:47.661Z,81.75
2022-07-29T00:37:14.200Z,81.80
2022-07-29T00:39:40.757Z,82.41
2022-07-29T00:42:07.950Z,82.43
2022-07-29T00:44:38.830Z,82.31
2022-07-29T00:47:05.846Z,82.07
2022-07-29T00:49:32.723Z,81.88
2022-07-29T00:52:00.105Z,81.68
2022-07-29T00:54:27.874Z,82.82
2022-07-29T00:56:54.511Z,82.90
2022-07-29T00:59:21.113Z,84.03
2022-07-29T01:01:47.662Z,83.34
2022-07-29T01:04:14.441Z,83.69
2022-07-29T01:06:43.799Z,84.31
2022-07-29T01:09:11.919Z,84.51
2022-07-29T01:11:39.627Z,83.06
2022-07-29T01:14:08.112Z,83.11
2022-07-29T01:16:46.824Z,82.40
2022-07-29T01:19:42.765Z,82.50
2022-07-29T01:22:30.856Z,81.54
2022-07-29T01:25:11.056Z,80.85
2022-07-29T01:28:10.261Z,80.65
2022-07-29T01:30:40.745Z,79.92
2022-07-29T01:33:34.540Z,80.54
2022-07-29T01:36:06.039Z,80.35
2022-07-29T01:38:32.550Z,79.75
2022-07-29T01:41:10.504Z,79.75
2022-07-29T01:43:52.683Z,79.30
2022-07-29T01:46:26.511Z,79.17
2022-07-29T01:49:00.962Z,79.34
2022-07-29T01:51:37.054Z,80.22
2022-07-29T01:54:11.484Z,79.84
2022-07-29T01:56:39.949Z,79.36
2022-07-29T01:59:09.244Z,79.78
2022-07-29T02:01:40.485Z,79.61
2022-07-29T02:04:11.141Z,79.57
2022-07-29T02:06:55.828Z,79.74
2022-07-29T02:09:24.383Z,79.26
2022-07-29T02:11:54.537Z,79.08
2022-07-29T02:14:23.409Z,79.17
2022-07-29T02:16:53.505Z,78.67
2022-07-29T02:19:22.172Z,77.84
2022-07-29T02:21:49.955Z,77.66
2022-07-29T02:24:18.881Z,77.82
2022-07-29T02:26:46.740Z,77.69
2022-07-29T02:29:15.805Z,78.41
2022-07-29T02:31:44.571Z,77.95
2022-07-29T02:34:12.840Z,77.92
2022-07-29T02:36:41.448Z,78.00
2022-07-29T02:39:10.775Z,78.05
2022-07-29T02:41:50.109Z,77.53
2022-07-29T02:44:20.373Z,77.61
2022-07-29T02:47:05.164Z,77.89
2022-07-29T02:50:04.583Z,77.34
2022-07-29T02:52:43.117Z,77.65
2022-07-29T02:55:34.609Z,78.81
2022-07-29T02:58:29.322Z,79.22
2022-07-29T03:01:03.555Z,79.59
2022-07-29T03:03:34.483Z,79.46
2022-07-29T03:06:03.363Z,79.33
2022-07-29T03:08:31.892Z,79.51
2022-07-29T03:10:58.797Z,79.03
2022-07-29T03:13:26.792Z,78.66
2022-07-29T03:15:54.535Z,78.70
2022-07-29T03:18:21.594Z,78.64
2022-07-29T03:20:48.114Z,78.57
2022-07-29T03:23:21.032Z,78.65
2022-07-29T03:25:47.877Z,79.01
2022-07-29T03:28:14.991Z,78.84
2022-07-29T03:30:44.601Z,78.23
2022-07-29T03:33:13.398Z,78.04
2022-07-29T03:35:40.430Z,77.72
2022-07-29T03:38:07.023Z,77.77
2022-07-29T03:40:42.438Z,77.71
2022-07-29T03:43:10.899Z,77.67
2022-07-29T03:45:39.072Z,77.80
2022-07-29T03:48:13.766Z,78.50
2022-07-29T03:50:40.754Z,79.02
2022-07-29T03:53:07.360Z,80.32
2022-07-29T03:55:41.113Z,81.04
2022-07-29T03:58:09.121Z,81.47
2022-07-29T04:00:37.433Z,81.60
2022-07-29T04:03:05.475Z,81.10
2022-07-29T04:05:37.403Z,80.49
2022-07-29T04:08:03.996Z,80.24
2022-07-29T04:10:31.911Z,81.72
2022-07-29T04:13:00.148Z,81.68
2022-07-29T04:15:26.836Z,80.78
2022-07-29T04:17:58.513Z,81.68
2022-07-29T04:20:24.967Z,83.28
2022-07-29T04:22:51.445Z,82.68
2022-07-29T04:25:18.284Z,82.44
2022-07-29T04:28:01.194Z,84.01
2022-07-29T04:30:28.104Z,81.86
2022-07-29T04:32:54.613Z,79.36
2022-07-29T04:35:21.608Z,79.14
2022-07-29T04:37:48.733Z,79.11
2022-07-29T04:40:15.445Z,79.07
2022-07-29T04:42:46.759Z,78.99
2022-07-29T04:45:14.741Z,78.97
2022-07-29T04:47:41.290Z,78.84
2022-07-29T04:50:09.132Z,78.65
2022-07-29T04:52:36.300Z,77.99
2022-07-29T04:55:03.813Z,78.04
2022-07-29T04:57:30.254Z,77.43
2022-07-29T04:59:56.799Z,77.28
2022-07-29T05:02:23.466Z,76.99
2022-07-29T05:04:50.031Z,77.08
2022-07-29T05:07:16.508Z,76.36
2022-07-29T05:09:42.974Z,76.36
2022-07-29T05:12:09.675Z,77.61
2022-07-29T05:14:36.241Z,76.96
2022-07-29T05:17:02.724Z,76.72
2022-07-29T05:19:29.214Z,76.56
2022-07-29T05:21:55.689Z,77.18
2022-07-29T05:24:22.324Z,77.11
2022-07-29T05:26:48.766Z,76.75
2022-07-29T05:29:44.774Z,76.76
2022-07-29T05:32:01.789Z,76.84
2022-07-29T05:34:28.260Z,76.98
2022-07-29T05:36:54.832Z,77.75
2022-07-29T05:39:21.633Z,77.65
2022-07-29T05:41:51.848Z,77.52
2022-07-29T05:44:19.010Z,76.78
2022-07-29T05:46:45.982Z,75.88
2022-07-29T05:49:13.026Z,75.99
2022-07-29T05:51:53.719Z,75.77
2022-07-29T05:54:20.463Z,75.88
2022-07-29T05:56:46.902Z,75.92
2022-07-29T05:59:18.173Z,75.48
2022-07-29T06:01:44.953Z,74.08
2022-07-29T06:04:11.505Z,73.67
2022-07-29T06:06:38.076Z,74.03
2022-07-29T06:09:12.796Z,74.78
2022-07-29T06:11:40.488Z,73.99
2022-07-29T06:14:06.994Z,73.26
2022-07-29T06:16:33.687Z,73.53
2022-07-29T06:19:00.270Z,74.88
2022-07-29T06:21:26.825Z,74.66
2022-07-29T06:23:53.295Z,72.05
2022-07-29T06:26:30.863Z,71.94
2022-07-29T06:28:58.109Z,71.08
2022-07-29T06:31:24.830Z,70.87
2022-07-29T06:33:51.429Z,70.02
2022-07-29T06:36:21.198Z,70.04
2022-07-29T06:38:51.271Z,68.67
2022-07-29T06:41:19.010Z,68.19
2022-07-29T06:43:52.208Z,65.44
2022-07-29T06:46:22.231Z,59.67
2022-07-29T06:48:49.608Z,54.58
2022-07-29T06:51:17.330Z,53.24
2022-07-29T06:53:59.448Z,57.50
2022-07-29T06:56:38.161Z,59.23
2022-07-29T06:59:07.176Z,61.56
2022-07-29T07:01:33.731Z,61.61
2022-07-29T07:04:00.332Z,54.47
2022-07-29T07:06:27.003Z,48.91
2022-07-29T07:08:53.470Z,46.62
2022-07-29T07:11:20.004Z,47.44
2022-07-29T07:13:46.493Z,46.88
2022-07-29T07:16:13.047Z,47.21
2022-07-29T07:18:39.624Z,43.58
2022-07-29T07:21:06.704Z,43.95
2022-07-29T07:23:33.251Z,42.31
2022-07-29T07:25:59.769Z,43.37
2022-07-29T07:28:26.265Z,42.79
2022-07-29T07:30:53.044Z,40.68
2022-07-29T07:33:19.921Z,45.52
2022-07-29T07:35:46.488Z,41.84
2022-07-29T07:38:13.287Z,42.09
2022-07-29T07:40:40.187Z,41.91
2022-07-29T07:43:06.936Z,43.64
2022-07-29T07:45:34.078Z,41.57
2022-07-29T07:48:00.981Z,41.23
2022-07-29T07:50:27.603Z,42.05
2022-07-29T07:52:58.462Z,41.82
2022-07-29T07:55:25.251Z,40.51
2022-07-29T07:57:51.767Z,40.17
2022-07-29T08:00:18.600Z,41.01
2022-07-29T08:02:46.177Z,38.74
2022-07-29T08:05:16.901Z,38.83
2022-07-29T08:07:45.744Z,37.47
2022-07-29T08:10:12.938Z,37.13
2022-07-29T08:12:39.537Z,37.34
2022-07-29T08:15:08.638Z,35.21
2022-07-29T08:17:35.371Z,35.92
2022-07-29T08:20:02.096Z,36.62
2022-07-29T08:22:29.543Z,36.21
2022-07-29T08:24:57.161Z,36.12
2022-07-29T08:27:43.021Z,37.85
2022-07-29T08:30:11.336Z,36.77
2022-07-29T08:32:53.087Z,37.21
2022-07-29T08:35:22.247Z,35.80
2022-07-29T08:37:48.839Z,37.33
2022-07-29T08:40:15.706Z,35.81
2022-07-29T08:42:42.272Z,35.19
2022-07-29T08:45:09.790Z,38.00
2022-07-29T08:47:40.452Z,38.17
2022-07-29T08:50:08.800Z,37.67
2022-07-29T08:52:38.080Z,36.91
2022-07-29T08:55:06.961Z,37.07
2022-07-29T08:57:34.806Z,35.56
2022-07-29T09:00:11.490Z,37.20
2022-07-29T09:02:46.729Z,36.38
2022-07-29T09:05:14.370Z,39.45
2022-07-29T09:07:44.072Z,38.38
2022-07-29T09:10:11.098Z,39.32
2022-07-29T09:12:38.438Z,38.44
2022-07-29T09:15:05.366Z,38.14
2022-07-29T09:17:50.657Z,39.38
2022-07-29T09:20:22.555Z,35.98
2022-07-29T09:22:54.183Z,35.96
2022-07-29T09:25:37.487Z,37.11
2022-07-29T09:28:09.445Z,36.26
2022-07-29T09:30:37.011Z,36.32
2022-07-29T09:33:04.677Z,36.72
2022-07-29T09:35:32.112Z,35.17
2022-07-29T09:37:58.904Z,33.24
2022-07-29T09:40:29.113Z,34.46
2022-07-29T09:42:58.793Z,35.42
2022-07-29T09:45:29.737Z,33.39
2022-07-29T09:47:58.434Z,34.74
2022-07-29T09:50:36.623Z,35.83
2022-07-29T09:53:03.094Z,34.16
2022-07-29T09:55:29.574Z,34.91
2022-07-29T09:58:16.183Z,35.48
2022-07-29T10:00:43.842Z,37.22
2022-07-29T10:03:10.602Z,37.56
2022-07-29T10:05:40.565Z,37.93
2022-07-29T10:08:07.137Z,38.64
2022-07-29T10:10:35.979Z,38.26
2022-07-29T10:13:10.994Z,38.31
2022-07-29T10:15:44.766Z,40.48
2022-07-29T10:18:13.112Z,38.90
2022-07-29T10:20:40.150Z,38.63
2022-07-29T10:23:06.819Z,38.90
2022-07-29T10:25:33.645Z,39.36
2022-07-29T10:28:00.353Z,40.71
2022-07-29T10:30:27.729Z,38.45
2022-07-29T10:33:25.366Z,40.24
2022-07-29T10:36:04.244Z,39.66
2022-07-29T10:38:53.500Z,38.70
2022-07-29T10:41:43.932Z,38.80
2022-07-29T10:44:25.971Z,38.47
2022-07-29T10:46:53.531Z,40.89
2022-07-29T10:49:25.345Z,40.96
2022-07-29T10:52:06.144Z,38.90
2022-07-29T10:54:44.121Z,39.13
2022-07-29T10:57:14.009Z,39.77
2022-07-29T10:59:42.831Z,38.26
2022-07-29T11:02:54.400Z,37.44
2022-07-29T11:05:22.097Z,39.63
2022-07-29T11:08:19.491Z,40.32
2022-07-29T11:11:21.987Z,38.40
2022-07-29T11:13:51.509Z,37.95
2022-07-29T11:16:23.141Z,37.75
2022-07-29T11:19:13.852Z,37.24
2022-07-29T11:21:53.496Z,35.50
2022-07-29T11:24:28.809Z,36.14
2022-07-29T11:27:11.136Z,36.51
2022-07-29T11:29:50.376Z,37.22
2022-07-29T11:32:22.705Z,36.79
2022-07-29T11:34:51.547Z,36.02
2022-07-29T11:37:20.227Z,37.63
2022-07-29T11:40:01.482Z,37.23
2022-07-29T11:42:34.342Z,36.53
2022-07-29T11:45:08.786Z,37.62
2022-07-29T11:48:05.262Z,37.91
2022-07-29T11:50:45.804Z,38.57
2022-07-29T11:53:15.213Z,40.38
2022-07-29T11:55:51.583Z,39.40
2022-07-29T11:58:25.230Z,37.36
2022-07-29T12:00:55.250Z,37.17
2022-07-29T12:03:35.157Z,36.28
2022-07-29T12:06:04.843Z,35.66
2022-07-29T12:08:41.688Z,37.09
2022-07-29T12:11:17.387Z,36.55
2022-07-29T12:13:47.315Z,35.49
2022-07-29T12:16:16.306Z,35.44
2022-07-29T12:19:00.282Z,36.15
2022-07-29T12:21:28.839Z,36.41
2022-07-29T12:24:00.455Z,36.15
2022-07-29T12:26:31.548Z,36.52
2022-07-29T12:29:03.119Z,36.38
2022-07-29T12:31:43.474Z,37.18
2022-07-29T12:34:13.538Z,37.04
2022-07-29T12:36:41.407Z,35.75
2022-07-29T12:39:08.411Z,36.76
2022-07-29T12:41:35.651Z,36.34
2022-07-29T12:44:02.335Z,38.31
2022-07-29T12:46:29.440Z,37.06
2022-07-29T12:48:57.538Z,37.23
2022-07-29T12:51:39.205Z,37.81
2022-07-29T12:54:23.796Z,36.15
2022-07-29T12:57:00.579Z,36.52
2022-07-29T12:59:27.077Z,35.98
2022-07-29T13:01:53.604Z,36.65
2022-07-29T13:04:34.480Z,37.50
2022-07-29T13:07:08.169Z,38.51
2022-07-29T13:09:43.446Z,39.89
2022-07-29T13:12:12.529Z,37.96
2022-07-29T13:14:47.525Z,35.98
2022-07-29T13:17:19.515Z,36.38
2022-07-29T13:19:54.018Z,36.92
2022-07-29T13:22:25.058Z,37.62
2022-07-29T13:24:52.909Z,38.95
2022-07-29T13:27:22.672Z,38.88
2022-07-29T13:29:52.128Z,37.06
2022-07-29T13:32:18.996Z,37.07
2022-07-29T13:34:55.046Z,37.37
2022-07-29T13:37:21.900Z,38.38
2022-07-29T13:39:53.241Z,39.01
2022-07-29T13:42:20.601Z,38.45
2022-07-29T13:44:47.123Z,38.32
2022-07-29T13:47:13.893Z,39.60
2022-07-29T13:49:40.365Z,39.58
2022-07-29T13:52:08.510Z,39.01
2022-07-29T13:54:41.964Z,38.12
2022-07-29T13:57:09.450Z,38.03
2022-07-29T13:59:36.147Z,37.87
2022-07-29T14:02:03.357Z,37.45
2022-07-29T14:04:30.151Z,37.78
2022-07-29T14:06:56.687Z,38.86
2022-07-29T14:09:23.756Z,36.71
2022-07-29T14:11:51.441Z,36.75
2022-07-29T14:14:18.423Z,36.13
2022-07-29T14:16:49.103Z,36.54
2022-07-29T14:19:18.766Z,35.17
2022-07-29T14:21:45.823Z,35.60
2022-07-29T14:24:17.036Z,35.24
2022-07-29T14:26:48.144Z,36.22
2022-07-29T14:29:14.717Z,34.66
2022-07-29T14:31:41.342Z,35.84
2022-07-29T14:34:07.869Z,36.62
2022-07-29T14:36:34.327Z,36.97
2022-07-29T14:39:00.787Z,36.10
2022-07-29T14:41:29.231Z,36.86
2022-07-29T14:43:55.823Z,35.96
2022-07-29T14:46:22.392Z,36.94
2022-07-29T14:48:49.045Z,38.50
2022-07-29T14:51:15.618Z,36.02
2022-07-29T14:53:42.096Z,36.75
2022-07-29T14:56:34.974Z,37.06
2022-07-29T14:58:54.977Z,37.79
2022-07-29T15:01:21.671Z,36.94
2022-07-29T15:03:48.335Z,36.76
2022-07-29T15:06:17.429Z,37.08
2022-07-29T15:08:43.935Z,37.00
2022-07-29T15:11:10.429Z,36.43
2022-07-29T15:13:36.938Z,37.57
2022-07-29T15:16:03.715Z,37.35
2022-07-29T15:18:30.177Z,38.35
2022-07-29T15:20:56.679Z,39.01
2022-07-29T15:23:23.497Z,39.21
2022-07-29T15:25:49.948Z,38.42
2022-07-29T15:28:16.413Z,39.36
2022-07-29T15:30:43.060Z,40.41
2022-07-29T15:33:10.478Z,41.02
2022-07-29T15:35:40.586Z,40.21
2022-07-29T15:38:07.753Z,41.61
2022-07-29T15:40:34.582Z,41.31
2022-07-29T15:43:06.735Z,41.60
2022-07-29T15:45:40.969Z,41.54
2022-07-29T15:48:10.155Z,42.04
2022-07-29T15:50:41.393Z,41.96
2022-07-29T15:53:07.995Z,42.45
2022-07-29T15:55:34.691Z,42.19
2022-07-29T15:58:01.152Z,42.38
2022-07-29T16:00:28.137Z,42.13
2022-07-29T16:02:54.627Z,43.04
2022-07-29T16:05:21.083Z,43.10
2022-07-29T16:07:47.551Z,43.22
2022-07-29T16:10:14.021Z,43.62
2022-07-29T16:12:40.509Z,43.99
2022-07-29T16:15:10.499Z,44.70
2022-07-29T16:17:38.308Z,43.86
2022-07-29T16:20:06.405Z,44.69
2022-07-29T16:22:32.903Z,44.45
2022-07-29T16:24:59.411Z,44.33
2022-07-29T16:27:37.775Z,45.34
2022-07-29T16:30:06.308Z,45.52
2022-07-29T16:32:32.734Z,45.72
2022-07-29T16:34:59.206Z,46.42
2022-07-29T16:37:25.871Z,46.14
2022-07-29T16:39:55.415Z,46.63
2022-07-29T16:42:44.430Z,46.29
2022-07-29T16:45:09.007Z,46.40
2022-07-29T16:47:36.366Z,45.91
2022-07-29T16:50:03.758Z,46.22
2022-07-29T16:52:30.215Z,45.81
2022-07-29T16:54:56.679Z,46.29
2022-07-29T16:57:24.246Z,47.07
2022-07-29T16:59:52.018Z,46.91
2022-07-29T17:02:19.100Z,47.86
2022-07-29T17:04:45.895Z,47.38
2022-07-29T17:07:12.697Z,47.31
2022-07-29T17:09:39.234Z,46.62
2022-07-29T17:12:06.066Z,47.56
2022-07-29T17:14:32.601Z,47.76
2022-07-29T17:17:02.226Z,47.77
2022-07-29T17:19:31.378Z,48.54
2022-07-29T17:22:06.440Z,48.40
2022-07-29T17:24:35.686Z,48.74
2022-07-29T17:27:02.206Z,47.61
2022-07-29T17:29:28.746Z,48.79
2022-07-29T17:31:55.458Z,48.40
2022-07-29T17:34:21.975Z,49.46
2022-07-29T17:36:48.536Z,48.79
2022-07-29T17:39:15.007Z,48.94
2022-07-29T17:41:41.760Z,49.54
2022-07-29T17:44:09.416Z,49.15
2022-07-29T17:46:36.228Z,49.84
2022-07-29T17:49:02.939Z,50.25
2022-07-29T17:51:29.563Z,50.47
2022-07-29T17:53:56.046Z,51.02
2022-07-29T17:56:22.565Z,51.05
2022-07-29T17:58:49.111Z,51.34
2022-07-29T18:01:50.593Z,51.34
2022-07-29T18:05:00.837Z,52.58
2022-07-29T18:07:36.696Z,52.70
2022-07-29T18:10:03.704Z,52.59
2022-07-29T18:12:30.227Z,53.51
2022-07-29T18:14:56.677Z,53.30
2022-07-29T18:17:45.947Z,53.49
2022-07-29T18:20:10.985Z,54.01
2022-07-29T18:22:37.506Z,54.74
2022-07-29T18:28:50.277Z,55.39
2022-07-29T18:35:05.800Z,56.21
2022-07-29T18:38:01.058Z,56.16
2022-07-29T18:40:21.247Z,56.89
2022-07-29T18:42:47.937Z,58.25
2022-07-29T18:45:19.136Z,57.89
2022-07-29T18:47:46.018Z,58.09
2022-07-29T18:50:14.066Z,58.68
2022-07-29T18:52:40.593Z,58.96
2022-07-29T18:55:07.771Z,59.41
2022-07-29T18:57:54.359Z,60.33
2022-07-29T19:00:21.365Z,60.86
2022-07-29T19:02:49.967Z,61.54
2022-07-29T19:05:16.602Z,61.79
2022-07-29T19:07:43.110Z,61.85
2022-07-29T19:10:10.015Z,62.50
2022-07-29T19:12:37.518Z,62.78
2022-07-29T19:15:04.569Z,62.99
2022-07-29T19:17:31.121Z,62.77
2022-07-29T19:19:57.717Z,63.38
2022-07-29T19:22:24.404Z,62.63
2022-07-29T19:24:51.257Z,62.42
2022-07-29T19:27:18.266Z,62.85
2022-07-29T19:29:45.018Z,63.58
2022-07-29T19:32:12.390Z,65.26
2022-07-29T19:34:39.064Z,65.96
2022-07-29T19:37:12.986Z,68.10
2022-07-29T19:39:39.473Z,70.61
2022-07-29T19:42:06.210Z,73.00
2022-07-29T19:44:32.690Z,73.65
2022-07-29T19:47:00.703Z,74.08
2022-07-29T19:49:27.594Z,76.31
2022-07-29T19:51:54.248Z,78.17
2022-07-29T19:54:20.848Z,79.34
2022-07-29T19:56:47.350Z,80.17
2022-07-29T19:59:14.520Z,80.97
2022-07-29T20:01:41.312Z,81.44
2022-07-29T20:04:07.831Z,81.87
2022-07-29T20:06:34.359Z,81.10
2022-07-29T20:09:00.800Z,82.07
2022-07-29T20:11:29.621Z,82.82
2022-07-29T20:13:56.150Z,83.24
2022-07-29T20:16:22.656Z,83.02
2022-07-29T20:18:51.878Z,83.97
2022-07-29T20:21:18.410Z,82.96
2022-07-29T20:23:45.872Z,82.45
2022-07-29T20:26:12.451Z,82.64
2022-07-29T20:28:40.249Z,81.71
2022-07-29T20:31:06.956Z,81.43
2022-07-29T20:33:33.470Z,81.82
2022-07-29T20:35:59.972Z,80.95
2022-07-29T20:38:26.511Z,81.95
2022-07-29T20:40:55.625Z,81.88
2022-07-29T20:43:22.089Z,82.05
2022-07-29T20:45:48.920Z,81.52
2022-07-29T20:48:15.403Z,81.98
2022-07-29T20:50:42.799Z,82.18
2022-07-29T20:53:09.436Z,82.24
2022-07-29T20:55:35.918Z,83.01
2022-07-29T20:58:02.385Z,83.02
2022-07-29T21:00:29.045Z,83.17
2022-07-29T21:02:55.594Z,83.48
2022-07-29T21:05:22.164Z,83.88
2022-07-29T21:07:48.662Z,84.72
2022-07-29T21:10:18.195Z,85.42
2022-07-29T21:12:48.452Z,85.93
2022-07-29T21:15:15.118Z,85.69
2022-07-29T21:17:47.029Z,86.13
2022-07-29T21:20:16.247Z,86.22
2022-07-29T21:22:43.411Z,86.82
2022-07-29T21:25:11.046Z,86.72
2022-07-29T21:27:56.599Z,87.28
2022-07-29T21:30:23.158Z,87.70
2022-07-29T21:32:49.697Z,87.23
2022-07-29T21:35:35.768Z,87.21
2022-07-29T21:38:02.857Z,87.08
2022-07-29T21:40:30.410Z,87.53
2022-07-29T21:42:57.022Z,88.46
2022-07-29T21:45:23.638Z,89.33
2022-07-29T21:47:50.085Z,89.86
2022-07-29T21:50:16.647Z,90.48
2022-07-29T21:52:43.233Z,91.30
2022-07-29T21:55:11.397Z,92.16
2022-07-29T21:57:38.236Z,92.00
2022-07-29T22:00:06.945Z,92.28
2022-07-29T22:02:33.424Z,92.92
2022-07-29T22:05:00.103Z,92.55
2022-07-29T22:07:54.719Z,93.65
2022-07-29T22:10:13.089Z,93.89
2022-07-29T22:12:39.542Z,94.95
2022-07-29T22:15:06.624Z,95.13
2022-07-29T22:17:33.260Z,96.73
2022-07-29T22:19:59.868Z,96.55
2022-07-29T22:22:26.859Z,96.95
2022-07-29T22:24:53.363Z,96.71
2022-07-29T22:27:19.823Z,97.88
2022-07-29T22:29:46.291Z,97.37
2022-07-29T22:32:12.795Z,97.63
2022-07-29T22:34:39.338Z,97.58
2022-07-29T22:37:05.960Z,97.87
2022-07-29T22:39:32.399Z,97.92
2022-07-29T22:41:58.862Z,97.80
2022-07-29T22:44:25.343Z,97.71
2022-07-29T22:46:51.838Z,97.86
2022-07-29T22:49:18.328Z,98.67
2022-07-29T22:51:44.895Z,98.07
2022-07-29T22:54:11.363Z,98.16
2022-07-29T22:56:37.865Z,98.13
2022-07-29T22:59:04.387Z,97.91
2022-07-29T23:01:36.047Z,98.67
2022-07-29T23:04:04.753Z,98.60
2022-07-29T23:06:31.327Z,99.47
2022-07-29T23:08:57.829Z,98.86
2022-07-29T23:11:24.296Z,99.94
2022-07-29T23:13:50.748Z,99.41
2022-07-29T23:16:26.601Z,100.00
2022-07-29T23:18:53.788Z,100.00
2022-07-29T23:21:20.922Z,100.00
2022-07-29T23:23:48.556Z,99.98
2022-07-29T23:26:16.862Z,100.00
2022-07-29T23:28:44.852Z,100.00
2022-07-29T23:31:11.549Z,100.00
2022-07-29T23:33:38.092Z,100.00
2022-07-29T23:36:04.643Z,100.00
2022-07-29T23:38:31.164Z,100.00
2022-07-29T23:40:58.657Z,99.76
2022-07-29T23:43:25.230Z,100.00
2022-07-29T23:45:51.742Z,100.00
2022-07-29T23:48:20.778Z,100.00
2022-07-29T23:50:47.443Z,100.00
2022-07-29T23:53:13.928Z,100.00
2022-07-29T23:55:40.526Z,100.00
2022-07-29T23:58:06.982Z,100.00
